Date,TemperatureHighF,TemperatureAvgF,TemperatureLowF,DewpointHighF,DewpointAvgF,DewpointLowF,HumidityHigh,HumidityAvg,HumidityLow,PressureMaxIn,PressureMinIn,WindSpeedMaxMPH,WindSpeedAvgMPH,GustSpeedMaxMPH,PrecipitationSumIn
2013-5-10,73.5,68.6,62.1,62.9,59.2,56.1,89,72,61,30.05,29.93,11,5,18,0.00
2013-5-11,72.4,64.9,55.6,65.5,58.0,49.2,92,79,60,30.00,29.85,14,5,20,0.24
2013-5-12,62.6,55.8,50.4,50.9,39.4,28.5,87,57,29,30.16,29.99,12,5,16,0.00
2013-5-13,64.1,53.1,39.3,40.1,33.2,28.6,82,50,27,30.27,30.16,11,3,17,0.00
2013-5-14,75.3,59.9,41.3,55.5,46.2,34.3,88,62,44,30.28,30.05,11,4,19,0.00
2013-5-15,82.8,72.8,63.5,61.0,57.4,54.9,74,59,43,30.14,29.97,11,6,18,0.00
2013-5-16,79.1,69.3,57.8,62.6,58.5,53.1,88,69,51,30.06,29.96,8,2,11,0.00
2013-5-17,82.0,68.8,59.0,65.8,61.6,57.8,97,80,46,30.11,30.01,6,1,8,0.00
2013-5-18,70.9,66.5,64.0,66.9,63.8,60.6,96,91,80,30.08,30.01,5,2,7,0.57
2013-5-19,76.3,68.6,63.1,69.8,65.6,61.6,97,90,79,30.08,29.99,8,2,11,0.00
2013-5-20,83.0,70.3,61.8,68.2,64.6,60.9,98,84,56,30.13,29.99,6,1,9,0.01
2013-5-21,68.7,65.7,64.0,67.8,64.5,63.1,98,96,93,30.05,29.99,1,0,2,0.00
2013-5-22,83.6,73.4,64.7,70.1,65.9,63.1,95,78,57,29.97,29.84,14,4,25,0.68
2013-5-23,77.8,69.9,63.3,65.9,61.1,54.6,97,75,55,30.01,29.87,11,5,19,0.04
2013-5-24,67.1,61.1,54.3,55.4,47.4,38.7,89,63,37,30.30,30.00,11,5,16,0.00
2013-5-25,74.2,59.5,45.9,52.1,44.9,39.7,91,61,32,30.38,30.20,7,2,9,0.00
2013-5-26,75.9,64.7,57.3,55.4,48.6,38.2,86,57,33,30.32,30.20,8,2,11,0.00
2013-5-27,81.7,68.5,56.6,60.9,57.3,53.8,93,70,46,30.24,30.09,10,3,14,0.00
2013-5-28,84.9,72.5,60.2,65.3,61.2,57.9,94,70,44,30.20,30.06,9,2,12,0.00
2013-5-29,86.2,73.3,60.2,69.0,62.9,56.9,95,71,47,30.21,30.08,7,2,9,0.00
2013-5-30,85.3,74.2,61.9,70.1,63.1,58.7,93,70,44,30.24,30.08,5,1,8,0.00
2013-5-31,87.1,75.6,65.1,66.6,63.0,59.9,87,67,44,30.17,30.03,7,2,9,0.00